createdAt,value
2022-10-03T00:00:45.821Z,12.54
2022-10-03T00:01:46.831Z,12.61
2022-10-03T00:02:47.281Z,12.55
2022-10-03T00:03:47.389Z,12.54
2022-10-03T00:04:48.358Z,12.53
2022-10-03T00:05:48.974Z,12.44
2022-10-03T00:06:49.866Z,12.33
2022-10-03T00:07:50.109Z,12.32
2022-10-03T00:08:50.660Z,12.29
2022-10-03T00:09:50.600Z,12.29
2022-10-03T00:10:50.955Z,12.28
2022-10-03T00:11:51.180Z,12.3
2022-10-03T00:12:52.476Z,12.21
2022-10-03T00:13:52.790Z,12.25
2022-10-03T00:14:53.777Z,12.29
2022-10-03T00:15:54.864Z,12.32
2022-10-03T00:16:55.444Z,12.3
2022-10-03T00:17:56.367Z,12.18
2022-10-03T00:18:56.983Z,12.23
2022-10-03T00:19:57.175Z,12.28
2022-10-03T00:20:57.789Z,12.25
2022-10-03T00:21:58.430Z,12.32
2022-10-03T00:22:59.382Z,12.18
2022-10-03T00:23:59.986Z,12.26
2022-10-03T00:25:00.673Z,12.3
2022-10-03T00:26:01.297Z,12.39
2022-10-03T00:27:01.511Z,12.32
2022-10-03T00:28:02.558Z,12.32
2022-10-03T00:29:02.898Z,12.3
2022-10-03T00:30:02.533Z,12.4
2022-10-03T00:31:04.168Z,12.3
2022-10-03T00:32:04.794Z,12.33
2022-10-03T00:33:05.413Z,12.37
2022-10-03T00:34:05.905Z,12.3
2022-10-03T00:35:06.922Z,12.37
2022-10-03T00:36:07.124Z,12.28
2022-10-03T00:37:07.334Z,12.28
2022-10-03T00:38:08.298Z,12.18
2022-10-03T00:39:08.928Z,12.25
2022-10-03T00:40:09.555Z,12.29
2022-10-03T00:41:10.744Z,12.18
2022-10-03T00:42:10.997Z,12.3
2022-10-03T00:43:11.206Z,12.25
2022-10-03T00:44:11.397Z,12.3
2022-10-03T00:45:11.691Z,12.29
2022-10-03T00:46:12.937Z,12.25
2022-10-03T00:47:14.050Z,12.28
2022-10-03T00:48:13.942Z,12.26
2022-10-03T00:49:15.165Z,12.28
2022-10-03T00:50:15.073Z,12.28
2022-10-03T00:51:15.439Z,12.3
2022-10-03T00:52:16.651Z,12.26
2022-10-03T00:53:17.875Z,12.25
2022-10-03T00:54:17.877Z,12.3
2022-10-03T00:55:18.597Z,12.33
2022-10-03T00:56:19.235Z,12.28
2022-10-03T00:57:20.159Z,12.32
2022-10-03T00:58:21.352Z,12.35
2022-10-03T00:59:21.265Z,12.32
2022-10-03T01:00:21.875Z,12.32
2022-10-03T01:01:22.361Z,12.32
2022-10-03T01:02:22.968Z,12.29
2022-10-03T01:03:22.906Z,12.3
2022-10-03T01:04:23.890Z,12.29
2022-10-03T01:05:24.583Z,12.32
2022-10-03T01:06:25.474Z,12.29
2022-10-03T01:07:25.368Z,12.28
2022-10-03T01:08:26.324Z,12.15
2022-10-03T01:09:27.518Z,12.17
2022-10-03T01:10:27.134Z,12.32
2022-10-03T01:11:27.451Z,12.32
2022-10-03T01:12:28.371Z,12.15
2022-10-03T01:13:28.863Z,12.14
2022-10-03T01:14:29.479Z,12.17
2022-10-03T01:15:30.217Z,12.26
2022-10-03T01:16:31.154Z,12.2
2022-10-03T01:17:31.568Z,12.17
2022-10-03T01:18:32.460Z,12.1
2022-10-03T01:19:33.070Z,12.11
2022-10-03T01:20:34.262Z,12.08
2022-10-03T01:21:34.176Z,12.11
2022-10-03T01:22:34.740Z,12.11
2022-10-03T01:23:35.394Z,12.08
2022-10-03T01:24:35.033Z,12.17
2022-10-03T01:25:35.759Z,12.14
2022-10-03T01:26:36.677Z,12.12
2022-10-03T01:27:37.204Z,12.12
2022-10-03T01:28:37.621Z,12.14
2022-10-03T01:29:38.259Z,12.08
2022-10-03T01:30:38.855Z,12.07
2022-10-03T01:31:40.471Z,12
2022-10-03T01:32:40.456Z,12.02
2022-10-03T01:33:41.677Z,11.99
2022-10-03T01:34:41.588Z,12.03
2022-10-03T01:35:42.620Z,12
2022-10-03T01:36:43.231Z,12
2022-10-03T01:37:43.761Z,12.07
2022-10-03T01:38:44.801Z,12.02
2022-10-03T01:39:44.403Z,12.08
2022-10-03T01:40:45.030Z,12.08
2022-10-03T01:41:45.983Z,12
2022-10-03T01:42:46.010Z,12.02
2022-10-03T01:43:47.200Z,11.95
2022-10-03T01:44:47.395Z,12.03
2022-10-03T01:45:47.807Z,12
2022-10-03T01:46:48.280Z,12
2022-10-03T01:47:48.243Z,11.99
2022-10-03T01:48:49.134Z,11.99
2022-10-03T01:49:49.077Z,11.96
2022-10-03T01:50:49.988Z,11.96
2022-10-03T01:51:50.904Z,11.95
2022-10-03T01:52:51.822Z,11.89
2022-10-03T01:53:52.871Z,11.95
2022-10-03T01:54:53.583Z,12.03
2022-10-03T01:55:53.298Z,12.03
2022-10-03T01:56:54.790Z,11.96
2022-10-03T01:57:55.012Z,11.96
2022-10-03T01:58:55.622Z,12.03
2022-10-03T01:59:56.533Z,11.99
2022-10-03T02:00:56.695Z,11.93
2022-10-03T02:01:57.071Z,11.95
2022-10-03T02:02:57.395Z,11.89
2022-10-03T02:03:58.609Z,11.91
2022-10-03T02:04:59.095Z,11.95
2022-10-03T02:05:59.792Z,11.99
2022-10-03T02:06:59.978Z,12
2022-10-03T02:08:00.296Z,11.96
2022-10-03T02:09:01.530Z,11.95
2022-10-03T02:10:01.437Z,11.89
2022-10-03T02:11:01.348Z,11.97
2022-10-03T02:12:02.541Z,11.95
2022-10-03T02:13:02.762Z,11.97
2022-10-03T02:14:02.647Z,11.97
2022-10-03T02:15:03.559Z,11.96
2022-10-03T02:16:03.948Z,12.03
2022-10-03T02:17:04.299Z,11.93
2022-10-03T02:18:04.794Z,11.89
2022-10-03T02:19:05.718Z,11.86
2022-10-03T02:20:05.634Z,11.89
2022-10-03T02:21:05.987Z,11.88
2022-10-03T02:22:06.606Z,11.99
2022-10-03T02:23:07.520Z,11.93
2022-10-03T02:24:07.778Z,11.83
2022-10-03T02:25:07.981Z,11.86
2022-10-03T02:26:08.400Z,11.85
2022-10-03T02:27:08.725Z,11.88
2022-10-03T02:28:10.403Z,11.88
2022-10-03T02:29:10.332Z,11.88
2022-10-03T02:30:10.543Z,11.81
2022-10-03T02:31:11.288Z,11.86
2022-10-03T02:32:11.659Z,11.78
2022-10-03T02:33:12.274Z,11.86
2022-10-03T02:34:12.874Z,11.83
2022-10-03T02:35:13.515Z,11.8
2022-10-03T02:36:13.951Z,11.81
2022-10-03T02:37:14.565Z,11.83
2022-10-03T02:38:15.757Z,11.78
2022-10-03T02:39:16.528Z,11.8
2022-10-03T02:40:17.451Z,11.85
2022-10-03T02:41:18.391Z,11.85
2022-10-03T02:42:19.578Z,11.81
2022-10-03T02:43:19.821Z,11.86
2022-10-03T02:44:20.313Z,11.81
2022-10-03T02:45:20.427Z,11.86
2022-10-03T02:46:21.240Z,11.83
2022-10-03T02:47:21.858Z,11.81
2022-10-03T02:48:37.476Z,11.77
2022-10-03T02:49:23.379Z,11.83
2022-10-03T02:50:23.569Z,11.85
2022-10-03T02:51:24.486Z,11.83
2022-10-03T02:52:25.125Z,11.81
2022-10-03T02:53:26.039Z,11.8
2022-10-03T02:54:26.263Z,11.8
2022-10-03T02:55:26.459Z,11.83
2022-10-03T02:56:27.482Z,11.8
2022-10-03T02:57:27.680Z,11.89
2022-10-03T02:58:28.200Z,11.88
2022-10-03T02:59:28.109Z,11.83
2022-10-03T03:00:28.296Z,11.83
2022-10-03T03:01:29.036Z,11.86
2022-10-03T03:02:29.698Z,11.91
2022-10-03T03:03:29.947Z,11.86
2022-10-03T03:04:29.864Z,11.83
2022-10-03T03:05:30.760Z,11.93
2022-10-03T03:06:31.729Z,11.83
2022-10-03T03:07:32.362Z,11.85
2022-10-03T03:08:33.005Z,11.91
2022-10-03T03:09:33.257Z,11.86
2022-10-03T03:10:34.457Z,11.86
2022-10-03T03:11:35.078Z,11.85
2022-10-03T03:12:41.575Z,11.88
2022-10-03T03:13:36.204Z,11.83
2022-10-03T03:14:36.519Z,11.8
2022-10-03T03:15:37.408Z,11.85
2022-10-03T03:16:37.502Z,11.81
2022-10-03T03:17:38.588Z,11.8
2022-10-03T03:18:39.075Z,11.81
2022-10-03T03:19:39.708Z,11.85
2022-10-03T03:20:40.622Z,11.78
2022-10-03T03:21:41.663Z,11.8
2022-10-03T03:22:40.549Z,11.8
2022-10-03T03:23:41.463Z,11.83
2022-10-03T03:24:42.124Z,11.91
2022-10-03T03:25:42.306Z,11.78
2022-10-03T03:26:42.462Z,11.93
2022-10-03T03:27:43.357Z,11.96
2022-10-03T03:28:44.483Z,11.86
2022-10-03T03:29:45.588Z,11.88
2022-10-03T03:30:45.640Z,11.8
2022-10-03T03:31:47.129Z,11.8
2022-10-03T03:32:47.189Z,11.88
2022-10-03T03:33:48.378Z,11.8
2022-10-03T03:34:48.274Z,11.8
2022-10-03T03:35:49.167Z,11.85
2022-10-03T03:36:49.584Z,11.91
2022-10-03T03:37:50.795Z,11.78
2022-10-03T03:38:51.408Z,11.77
2022-10-03T03:39:52.081Z,11.74
2022-10-03T03:40:52.705Z,11.78
2022-10-03T03:41:53.320Z,11.8
2022-10-03T03:42:53.527Z,11.78
2022-10-03T03:43:54.433Z,11.77
2022-10-03T03:44:54.945Z,11.73
2022-10-03T03:45:55.367Z,11.73
2022-10-03T03:46:55.370Z,11.77
2022-10-03T03:47:56.569Z,11.77
2022-10-03T03:48:56.314Z,11.71
2022-10-03T03:49:57.526Z,11.76
2022-10-03T03:50:58.160Z,11.74
2022-10-03T03:51:58.782Z,11.6
2022-10-03T03:52:59.974Z,11.73
2022-10-03T03:53:59.889Z,11.62
2022-10-03T03:55:00.563Z,11.63
2022-10-03T03:56:01.186Z,11.6
2022-10-03T03:57:01.516Z,11.59
2022-10-03T03:58:01.849Z,11.67
2022-10-03T03:59:02.350Z,11.63
2022-10-03T04:00:02.583Z,11.67
2022-10-03T04:01:03.398Z,11.63
2022-10-03T04:02:04.489Z,11.62
2022-10-03T04:03:05.598Z,11.6
2022-10-03T04:04:06.509Z,11.62
2022-10-03T04:05:07.150Z,11.65
2022-10-03T04:06:08.070Z,11.67
2022-10-03T04:07:08.058Z,11.67
2022-10-03T04:08:09.364Z,11.62
2022-10-03T04:09:09.850Z,11.67
2022-10-03T04:10:09.804Z,11.68
2022-10-03T04:11:10.706Z,11.76
2022-10-03T04:12:11.345Z,11.6
2022-10-03T04:13:12.282Z,11.74
2022-10-03T04:14:13.186Z,11.6
2022-10-03T04:15:14.111Z,11.63
2022-10-03T04:16:15.471Z,11.62
2022-10-03T04:17:15.612Z,11.65
2022-10-03T04:18:16.535Z,11.62
2022-10-03T04:19:16.728Z,11.67
2022-10-03T04:20:17.222Z,11.74
2022-10-03T04:21:20.542Z,11.63
2022-10-03T04:22:17.434Z,11.63
2022-10-03T04:23:18.337Z,11.73
2022-10-03T04:24:18.253Z,11.67
2022-10-03T04:25:18.775Z,11.63
2022-10-03T04:26:18.379Z,11.67
2022-10-03T04:27:18.515Z,11.63
2022-10-03T04:28:19.418Z,11.58
2022-10-03T04:29:20.532Z,11.65
2022-10-03T04:30:20.855Z,11.67
2022-10-03T04:31:21.546Z,11.63
2022-10-03T04:32:21.436Z,11.65
2022-10-03T04:33:22.331Z,11.65
2022-10-03T04:34:22.642Z,11.59
2022-10-03T04:35:22.834Z,11.59
2022-10-03T04:36:23.446Z,11.59
2022-10-03T04:37:24.443Z,11.62
2022-10-03T04:38:25.389Z,11.55
2022-10-03T04:39:26.003Z,11.7
2022-10-03T04:40:27.302Z,11.68
2022-10-03T04:41:27.479Z,11.63
2022-10-03T04:42:28.465Z,11.59
2022-10-03T04:43:28.387Z,11.56
2022-10-03T04:44:29.604Z,11.56
2022-10-03T04:45:29.649Z,11.59
2022-10-03T04:46:31.027Z,11.58
2022-10-03T04:47:31.719Z,11.58
2022-10-03T04:48:32.206Z,11.56
2022-10-03T04:49:32.691Z,11.52
2022-10-03T04:50:32.309Z,11.62
2022-10-03T04:51:33.201Z,11.55
2022-10-03T04:52:34.438Z,11.56
2022-10-03T04:53:35.358Z,11.6
2022-10-03T04:54:35.993Z,11.51
2022-10-03T04:55:37.220Z,11.55
2022-10-03T04:56:38.124Z,11.56
2022-10-03T04:57:38.161Z,11.58
2022-10-03T04:58:39.100Z,11.58
2022-10-03T04:59:39.710Z,11.55
2022-10-03T05:00:39.761Z,11.56
2022-10-03T05:01:41.356Z,11.59
2022-10-03T05:02:41.947Z,11.63
2022-10-03T05:03:41.863Z,11.58
2022-10-03T05:04:43.061Z,11.62
2022-10-03T05:05:43.703Z,11.59
2022-10-03T05:06:44.912Z,11.55
2022-10-03T05:07:45.623Z,11.59
2022-10-03T05:08:46.239Z,11.44
2022-10-03T05:09:47.432Z,11.52
2022-10-03T05:10:47.633Z,11.45
2022-10-03T05:11:48.365Z,11.41
2022-10-03T05:12:48.997Z,11.37
2022-10-03T05:13:49.617Z,11.35
2022-10-03T05:14:50.119Z,11.38
2022-10-03T05:15:50.354Z,11.43
2022-10-03T05:16:51.248Z,11.37
2022-10-03T05:17:51.705Z,11.4
2022-10-03T05:18:52.596Z,11.41
2022-10-03T05:19:52.524Z,11.38
2022-10-03T05:20:53.138Z,11.45
2022-10-03T05:21:54.072Z,11.37
2022-10-03T05:22:54.282Z,11.38
2022-10-03T05:23:55.200Z,11.37
2022-10-03T05:24:55.392Z,11.4
2022-10-03T05:25:55.918Z,11.37
2022-10-03T05:26:58.014Z,11.4
2022-10-03T05:27:58.890Z,11.44
2022-10-03T05:28:59.061Z,11.44
2022-10-03T05:29:59.988Z,11.41
2022-10-03T05:31:00.012Z,11.48
2022-10-03T05:32:00.226Z,11.41
2022-10-03T05:33:08.793Z,11.45
2022-10-03T05:34:01.590Z,11.44
2022-10-03T05:35:02.201Z,11.37
2022-10-03T05:36:02.135Z,11.44
2022-10-03T05:37:02.457Z,11.43
2022-10-03T05:38:03.756Z,11.38
2022-10-03T05:39:03.946Z,11.34
2022-10-03T05:40:04.295Z,11.4
2022-10-03T05:41:05.670Z,11.4
2022-10-03T05:42:27.719Z,11.4
2022-10-03T05:43:06.933Z,11.43
2022-10-03T05:44:07.548Z,11.4
2022-10-03T05:45:08.576Z,11.45
2022-10-03T05:46:08.740Z,11.41
2022-10-03T05:47:09.568Z,11.45
2022-10-03T05:48:10.312Z,11.48
2022-10-03T05:49:10.534Z,11.44
2022-10-03T05:50:18.868Z,11.45
2022-10-03T05:51:11.483Z,11.43
2022-10-03T05:52:12.099Z,11.48
2022-10-03T05:53:13.291Z,11.48
2022-10-03T05:54:13.905Z,11.38
2022-10-03T05:55:15.099Z,11.48
2022-10-03T05:56:15.332Z,11.45
2022-10-03T05:57:15.941Z,11.44
2022-10-03T05:58:16.384Z,11.44
2022-10-03T05:59:17.000Z,11.49
2022-10-03T06:00:18.503Z,11.49
2022-10-03T06:01:18.506Z,11.52
2022-10-03T06:02:19.036Z,11.51
2022-10-03T06:03:20.109Z,11.48
2022-10-03T06:04:20.454Z,11.48
2022-10-03T06:05:20.667Z,11.44
2022-10-03T06:06:20.926Z,11.38
2022-10-03T06:07:21.615Z,11.43
2022-10-03T06:08:22.070Z,11.48
2022-10-03T06:09:22.988Z,11.51
2022-10-03T06:10:23.624Z,11.43
2022-10-03T06:11:24.552Z,11.43
2022-10-03T06:12:24.760Z,11.44
2022-10-03T06:13:24.966Z,11.43
2022-10-03T06:14:25.579Z,11.31
2022-10-03T06:15:26.187Z,11.37
2022-10-03T06:16:26.661Z,11.26
2022-10-03T06:17:26.733Z,11.22
2022-10-03T06:18:27.149Z,11.27
2022-10-03T06:19:27.640Z,11.2
2022-10-03T06:20:27.963Z,11.25
2022-10-03T06:21:28.872Z,11.16
2022-10-03T06:22:29.069Z,11.16
2022-10-03T06:23:30.004Z,11.22
2022-10-03T06:24:30.600Z,11.15
2022-10-03T06:25:31.235Z,11.16
2022-10-03T06:26:32.186Z,11.16
2022-10-03T06:27:32.109Z,11.18
2022-10-03T06:28:33.032Z,11.22
2022-10-03T06:29:34.009Z,11.22
2022-10-03T06:30:34.846Z,11.27
2022-10-03T06:31:37.960Z,11.23
2022-10-03T06:32:35.335Z,11.33
2022-10-03T06:33:36.677Z,11.33
2022-10-03T06:34:37.568Z,11.33
2022-10-03T06:35:38.062Z,11.37
2022-10-03T06:36:38.275Z,11.41
2022-10-03T06:37:38.494Z,11.43
2022-10-03T06:38:39.511Z,11.45
2022-10-03T06:39:39.502Z,11.51
2022-10-03T06:40:39.840Z,11.58
2022-10-03T06:41:42.000Z,11.45
2022-10-03T06:42:42.113Z,11.58
2022-10-03T06:43:42.035Z,11.53
2022-10-03T06:44:42.961Z,11.52
2022-10-03T06:45:43.443Z,11.51
2022-10-03T06:46:43.691Z,11.55
2022-10-03T06:47:44.904Z,11.49
2022-10-03T06:48:45.902Z,11.56
2022-10-03T06:49:46.396Z,11.58
2022-10-03T06:50:46.435Z,11.58
2022-10-03T06:51:47.704Z,11.62
2022-10-03T06:52:47.900Z,11.59
2022-10-03T06:53:48.248Z,11.63
2022-10-03T06:54:49.442Z,11.67
2022-10-03T06:55:49.365Z,11.67
2022-10-03T06:56:55.728Z,11.67
2022-10-03T06:57:50.626Z,11.6
2022-10-03T06:58:51.025Z,11.67
2022-10-03T06:59:50.918Z,11.62
2022-10-03T07:00:52.135Z,11.7
2022-10-03T07:01:52.548Z,11.73
2022-10-03T07:02:52.704Z,11.68
2022-10-03T07:03:53.577Z,11.7
2022-10-03T07:04:54.486Z,11.73
2022-10-03T07:05:55.147Z,11.71
2022-10-03T07:06:55.628Z,11.68
2022-10-03T07:07:55.843Z,11.78
2022-10-03T07:08:56.555Z,11.8
2022-10-03T07:09:57.485Z,11.78
2022-10-03T07:10:57.826Z,11.8
2022-10-03T07:11:58.510Z,11.93
2022-10-03T07:12:58.878Z,11.91
2022-10-03T07:14:00.495Z,11.91
2022-10-03T07:15:00.440Z,11.95
2022-10-03T07:16:30.879Z,11.89
2022-10-03T07:17:01.556Z,11.97
2022-10-03T07:18:01.480Z,11.83
2022-10-03T07:19:02.769Z,11.91
2022-10-03T07:20:02.794Z,11.91
2022-10-03T07:21:03.732Z,11.89
2022-10-03T07:22:03.925Z,11.97
2022-10-03T07:23:04.140Z,12
2022-10-03T07:24:04.478Z,12.02
2022-10-03T07:25:05.688Z,12
2022-10-03T07:26:05.591Z,12
2022-10-03T07:27:06.547Z,11.93
2022-10-03T07:28:07.758Z,11.85
2022-10-03T07:29:07.364Z,12
2022-10-03T07:30:08.557Z,12.05
2022-10-03T07:31:09.682Z,12.08
2022-10-03T07:32:09.970Z,12.12
2022-10-03T07:33:09.914Z,12.14
2022-10-03T07:34:11.116Z,12.17
2022-10-03T07:35:11.713Z,12.08
2022-10-03T07:36:12.641Z,12.14
2022-10-03T07:37:13.573Z,12.14
2022-10-03T07:38:14.470Z,12.11
2022-10-03T07:39:15.174Z,12.15
2022-10-03T07:40:15.811Z,12.18
2022-10-03T07:41:16.031Z,12.17
2022-10-03T07:42:16.988Z,12.15
2022-10-03T07:43:17.163Z,12.18
2022-10-03T07:44:17.804Z,12.23
2022-10-03T07:45:18.124Z,12.15
2022-10-03T07:46:19.594Z,12.18
2022-10-03T07:47:20.095Z,12.17
2022-10-03T07:48:20.361Z,12.21
2022-10-03T07:49:24.196Z,12.2
2022-10-03T07:50:21.113Z,12.2
2022-10-03T07:51:21.330Z,12.26
2022-10-03T07:52:22.317Z,12.21
2022-10-03T07:53:22.271Z,12.26
2022-10-03T07:54:23.481Z,12.18
2022-10-03T07:55:24.395Z,12.07
2022-10-03T07:56:24.597Z,12.14
2022-10-03T07:57:24.545Z,12.08
2022-10-03T07:58:24.735Z,12.05
2022-10-03T07:59:25.475Z,12.1
2022-10-03T08:00:25.842Z,12.05
2022-10-03T08:01:27.278Z,12.08
2022-10-03T08:02:28.388Z,11.96
2022-10-03T08:03:28.966Z,11.97
2022-10-03T08:04:30.075Z,11.93
2022-10-03T08:05:30.415Z,11.99
2022-10-03T08:06:32.035Z,11.93
2022-10-03T08:07:31.946Z,12.03
2022-10-03T08:08:32.843Z,11.97
2022-10-03T08:09:33.131Z,12.02
2022-10-03T08:10:40.647Z,12
2022-10-03T08:11:34.168Z,12.07
2022-10-03T08:12:34.751Z,12.07
2022-10-03T08:13:34.652Z,12.05
2022-10-03T08:14:35.251Z,12.08
2022-10-03T08:15:36.240Z,12.11
2022-10-03T08:16:36.067Z,12.07
2022-10-03T08:17:37.276Z,12.17
2022-10-03T08:18:37.228Z,12.08
2022-10-03T08:19:37.248Z,12.15
2022-10-03T08:20:38.872Z,12.14
2022-10-03T08:21:39.705Z,12.15
2022-10-03T08:22:39.440Z,12.21
2022-10-03T08:23:39.654Z,12.21
2022-10-03T08:24:40.596Z,12.18
2022-10-03T08:25:40.790Z,12.15
2022-10-03T08:26:41.990Z,12.33
2022-10-03T08:27:41.950Z,12.25
2022-10-03T08:28:43.042Z,12.3
2022-10-03T08:29:43.311Z,12.3
2022-10-03T08:30:43.956Z,12.33
2022-10-03T08:31:45.447Z,12.3
2022-10-03T08:32:49.220Z,12.32
2022-10-03T08:33:45.738Z,12.36
2022-10-03T08:34:46.078Z,12.43
2022-10-03T08:35:46.999Z,12.32
2022-10-03T08:36:47.889Z,12.29
2022-10-03T08:37:48.077Z,12.2
2022-10-03T08:38:48.995Z,12.1
2022-10-03T08:39:49.729Z,12.02
2022-10-03T08:40:49.775Z,11.93
2022-10-03T08:41:50.418Z,12.02
2022-10-03T08:42:52.034Z,11.91
2022-10-03T08:43:52.518Z,11.95
2022-10-03T08:44:52.572Z,11.89
2022-10-03T08:45:53.485Z,11.95
2022-10-03T08:46:54.093Z,12
2022-10-03T08:47:54.350Z,12.08
2022-10-03T08:48:54.585Z,12.1
2022-10-03T08:49:55.278Z,12.2
2022-10-03T08:50:55.925Z,12.28
2022-10-03T08:51:56.570Z,12.26
2022-10-03T08:52:57.059Z,12.4
2022-10-03T08:53:57.257Z,12.33
2022-10-03T08:54:56.909Z,12.36
2022-10-03T08:55:58.112Z,12.44
2022-10-03T08:56:58.326Z,12.45
2022-10-03T08:57:59.263Z,12.47
2022-10-03T08:58:59.147Z,12.5
2022-10-03T09:00:00.440Z,12.54
2022-10-03T09:01:00.332Z,12.54
2022-10-03T09:02:01.255Z,12.61
2022-10-03T09:03:43.286Z,12.53
2022-10-03T09:04:00.433Z,12.58
2022-10-03T09:05:01.655Z,12.51
2022-10-03T09:06:02.274Z,12.4
2022-10-03T09:07:32.882Z,12.3
2022-10-03T09:08:03.778Z,12.29
2022-10-03T09:09:04.396Z,12.32
2022-10-03T09:10:05.389Z,12.33
2022-10-03T09:11:05.361Z,12.33
2022-10-03T09:12:06.280Z,12.28
2022-10-03T09:13:07.251Z,12.37
2022-10-03T09:14:07.864Z,12.33
2022-10-03T09:15:08.491Z,12.35
2022-10-03T09:16:09.446Z,12.36
2022-10-03T09:17:09.234Z,12.4
2022-10-03T09:18:09.572Z,12.39
2022-10-03T09:19:09.778Z,12.5
2022-10-03T09:20:09.904Z,12.53
2022-10-03T09:21:11.103Z,12.51
2022-10-03T09:22:11.426Z,12.39
2022-10-03T09:23:12.063Z,12.37
2022-10-03T09:24:12.703Z,12.2
2022-10-03T09:25:13.920Z,12.32
2022-10-03T09:26:13.840Z,12.15
2022-10-03T09:27:13.877Z,12.23
2022-10-03T09:28:15.392Z,12
2022-10-03T09:29:16.401Z,12.07
2022-10-03T09:30:17.192Z,12.2
2022-10-03T09:31:17.349Z,12.12
2022-10-03T09:32:18.144Z,12.28
2022-10-03T09:33:18.453Z,12.29
2022-10-03T09:34:19.656Z,12.2
2022-10-03T09:35:19.607Z,12.25
2022-10-03T09:36:20.804Z,12.23
2022-10-03T09:37:20.722Z,12.3
2022-10-03T09:38:21.209Z,12.32
2022-10-03T09:39:21.832Z,12.32
2022-10-03T09:40:23.358Z,12.37
2022-10-03T09:41:23.549Z,12.3
2022-10-03T09:42:24.541Z,12.43
2022-10-03T09:43:25.471Z,12.25
2022-10-03T09:44:25.652Z,12.21
2022-10-03T09:45:25.557Z,12.29
2022-10-03T09:46:26.504Z,12.37
2022-10-03T09:47:26.593Z,12.37
2022-10-03T09:48:27.509Z,12.3
2022-10-03T09:49:28.449Z,12.28
2022-10-03T09:50:28.458Z,12.35
2022-10-03T09:51:29.373Z,12.28
2022-10-03T09:52:29.961Z,12.2
2022-10-03T09:53:29.575Z,12.15
2022-10-03T09:54:30.769Z,12.28
2022-10-03T09:55:34.112Z,12.18
2022-10-03T09:56:32.225Z,12.15
2022-10-03T09:57:32.617Z,12.33
2022-10-03T09:58:33.146Z,12.21
2022-10-03T09:59:33.026Z,12.21
2022-10-03T10:00:34.170Z,12.2
2022-10-03T10:01:34.844Z,12.2
2022-10-03T10:02:35.528Z,12.14
2022-10-03T10:03:35.892Z,12.17
2022-10-03T10:04:59.651Z,12.14
2022-10-03T10:05:36.900Z,12.28
2022-10-03T10:06:38.387Z,12.28
2022-10-03T10:07:38.148Z,12.25
2022-10-03T10:08:38.764Z,12.21
2022-10-03T10:09:38.980Z,12.3
2022-10-03T10:10:40.254Z,12.3
2022-10-03T10:11:41.287Z,12.32
2022-10-03T10:12:41.208Z,12.4
2022-10-03T10:14:09.130Z,12.54
2022-10-03T10:14:43.049Z,12.57
2022-10-03T10:15:43.792Z,12.62
2022-10-03T10:16:49.190Z,12.83
2022-10-03T10:17:45.489Z,12.83
2022-10-03T10:18:45.415Z,12.87
2022-10-03T10:19:46.090Z,13.01
2022-10-03T10:20:46.737Z,13.27
2022-10-03T10:21:46.680Z,13.71
2022-10-03T10:22:48.175Z,14.08
2022-10-03T10:23:48.094Z,14.53
2022-10-03T10:24:48.715Z,14.93
2022-10-03T10:25:48.764Z,15.27
2022-10-03T10:26:50.740Z,15.55
2022-10-03T10:27:50.776Z,15.8
2022-10-03T10:28:52.176Z,15.9
2022-10-03T10:29:52.422Z,16.22
2022-10-03T10:30:52.832Z,16.21
2022-10-03T10:31:54.054Z,16.29
2022-10-03T10:32:53.753Z,16.39
2022-10-03T10:33:54.679Z,16.59
2022-10-03T10:34:54.889Z,16.79
2022-10-03T10:35:55.403Z,17.13
2022-10-03T10:36:55.356Z,17.38
2022-10-03T10:37:56.564Z,17.76
2022-10-03T10:38:56.766Z,18
2022-10-03T10:39:57.383Z,18
2022-10-03T10:41:03.620Z,17.98
2022-10-03T10:41:59.467Z,17.84
2022-10-03T10:42:59.966Z,17.68
2022-10-03T10:44:01.017Z,17.31
2022-10-03T10:45:01.699Z,16.97
2022-10-03T10:46:02.189Z,16.73
2022-10-03T10:47:02.778Z,16.72
2022-10-03T10:48:03.036Z,16.57
2022-10-03T10:49:09.382Z,16.4
2022-10-03T10:50:04.890Z,16.32
2022-10-03T10:51:05.487Z,16.26
2022-10-03T10:52:05.799Z,16.25
2022-10-03T10:53:06.169Z,16.26
2022-10-03T10:54:07.085Z,16.17
2022-10-03T10:55:07.036Z,16.17
2022-10-03T10:56:07.948Z,16.29
2022-10-03T10:57:08.471Z,16.32
2022-10-03T10:58:08.965Z,16.39
2022-10-03T10:59:09.179Z,16.49
2022-10-03T11:00:09.541Z,16.47
2022-10-03T11:01:11.416Z,16.58
2022-10-03T11:02:11.137Z,16.36
2022-10-03T11:03:11.777Z,16.21
2022-10-03T11:04:12.830Z,15.96
2022-10-03T11:05:13.228Z,15.81
2022-10-03T11:06:14.148Z,15.69
2022-10-03T11:07:14.760Z,15.6
2022-10-03T11:08:15.399Z,15.67
2022-10-03T11:09:16.336Z,15.66
2022-10-03T11:10:16.246Z,15.72
2022-10-03T11:11:17.267Z,15.85
2022-10-03T11:12:17.891Z,15.96
2022-10-03T11:13:19.098Z,15.96
2022-10-03T11:14:19.762Z,15.91
2022-10-03T11:15:20.831Z,15.73
2022-10-03T11:16:21.341Z,15.66
2022-10-03T11:17:21.156Z,15.6
2022-10-03T11:18:21.761Z,15.48
2022-10-03T11:19:22.082Z,15.32
2022-10-03T11:20:22.997Z,15.23
2022-10-03T11:21:23.316Z,15.17
2022-10-03T11:22:23.840Z,15.17
2022-10-03T11:23:23.762Z,15.04
2022-10-03T11:24:24.401Z,14.85
2022-10-03T11:25:24.444Z,14.81
2022-10-03T11:26:25.048Z,14.81
2022-10-03T11:27:25.647Z,14.77
2022-10-03T11:28:31.218Z,14.77
2022-10-03T11:29:27.327Z,14.78
2022-10-03T11:30:28.259Z,14.9
2022-10-03T11:31:29.154Z,15
2022-10-03T11:32:29.990Z,14.99
2022-10-03T11:33:30.631Z,15.02
2022-10-03T11:34:31.054Z,14.9
2022-10-03T11:35:31.975Z,14.93
2022-10-03T11:36:32.842Z,14.93
2022-10-03T11:37:33.359Z,15.02
2022-10-03T11:38:34.555Z,14.97
2022-10-03T11:39:34.756Z,15.04
2022-10-03T11:40:35.675Z,15.1
2022-10-03T11:41:36.064Z,15.25
2022-10-03T11:42:36.667Z,15.39
2022-10-03T11:43:37.615Z,15.52
2022-10-03T11:44:38.467Z,15.65
2022-10-03T11:45:38.071Z,15.73
2022-10-03T11:46:39.652Z,15.9
2022-10-03T11:47:39.999Z,15.88
2022-10-03T11:48:40.242Z,16.03
2022-10-03T11:49:40.440Z,16.21
2022-10-03T11:50:41.063Z,16.26
2022-10-03T11:51:41.796Z,16.24
2022-10-03T11:52:42.314Z,16.21
2022-10-03T11:53:42.659Z,16.05
2022-10-03T11:54:43.223Z,15.81
2022-10-03T11:55:44.123Z,15.7
2022-10-03T11:56:45.508Z,15.57
2022-10-03T11:57:46.007Z,15.54
2022-10-03T11:58:46.903Z,15.41
2022-10-03T11:59:47.837Z,15.51
2022-10-03T12:00:47.788Z,15.47
2022-10-03T12:01:52.087Z,15.57
2022-10-03T12:02:49.350Z,15.66
2022-10-03T12:03:50.164Z,15.65
2022-10-03T12:04:50.383Z,15.67
2022-10-03T12:05:51.011Z,15.72
2022-10-03T12:06:52.279Z,15.96
2022-10-03T12:07:58.648Z,15.92
2022-10-03T12:08:52.926Z,15.96
2022-10-03T12:09:53.550Z,15.94
2022-10-03T12:10:54.469Z,16.02
2022-10-03T12:11:54.443Z,16.32
2022-10-03T12:12:55.069Z,16.44
2022-10-03T12:13:55.997Z,16.58
2022-10-03T12:14:56.736Z,16.69
2022-10-03T12:15:56.676Z,16.86
2022-10-03T12:16:58.627Z,16.95
2022-10-03T12:17:58.293Z,17.17
2022-10-03T12:18:58.219Z,17.44
2022-10-03T12:19:59.423Z,17.65
2022-10-03T12:20:59.523Z,17.73
2022-10-03T12:22:00.931Z,17.78
2022-10-03T12:23:00.992Z,17.69
2022-10-03T12:24:01.892Z,17.53
2022-10-03T12:25:02.815Z,17.44
2022-10-03T12:26:03.427Z,17.38
2022-10-03T12:27:03.496Z,17.28
2022-10-03T12:28:04.610Z,17.24
2022-10-03T12:29:05.062Z,17.23
2022-10-03T12:30:06.305Z,17.23
2022-10-03T12:31:06.665Z,17.37
2022-10-03T12:32:07.481Z,17.35
2022-10-03T12:33:07.166Z,17.34
2022-10-03T12:34:08.370Z,17.44
2022-10-03T12:35:08.874Z,17.47
2022-10-03T12:36:09.529Z,17.46
2022-10-03T12:37:10.760Z,17.49
2022-10-03T12:38:10.999Z,17.54
2022-10-03T12:39:11.220Z,17.49
2022-10-03T12:40:12.150Z,17.73
2022-10-03T12:41:12.784Z,17.76
2022-10-03T12:42:13.856Z,17.94
2022-10-03T12:43:14.056Z,18.06
2022-10-03T12:44:14.684Z,18
2022-10-03T12:45:16.194Z,18.02
2022-10-03T12:46:16.686Z,18.06
2022-10-03T12:47:43.790Z,18.16
2022-10-03T12:48:17.351Z,18.21
2022-10-03T12:49:18.255Z,18.18
2022-10-03T12:50:18.894Z,18.16
2022-10-03T12:51:19.519Z,18.18
2022-10-03T12:52:20.293Z,18.19
2022-10-03T12:53:20.600Z,18.16
2022-10-03T12:54:26.740Z,18.12
2022-10-03T12:55:21.775Z,18.13
2022-10-03T12:56:22.977Z,18.03
2022-10-03T12:57:23.329Z,18.03
2022-10-03T12:58:24.253Z,17.97
2022-10-03T12:59:24.863Z,18.03
2022-10-03T13:00:25.802Z,17.97
2022-10-03T13:01:26.778Z,18.03
2022-10-03T13:02:27.373Z,18.12
2022-10-03T13:03:27.652Z,18.18
2022-10-03T13:04:28.147Z,18.28
2022-10-03T13:05:28.049Z,18.39